AirNav   Pilot Hours Calculator
 
 1177 users online  

0TX6 Elm Creek Airpark
Seguin, Texas, USA

GOING TO SEGUIN?


FAA INFORMATION EFFECTIVE 15 JULY 2021

Location

FAA Identifier: 0TX6
Lat/Long: 29-30-18.1500N 097-59-49.7250W
29-30.302500N 097-59.828750W
29.5050417,-97.9971458
(estimated)
Elevation: 550 ft. / 168 m (estimated)
Variation: 07E (1985)
From city: 4 miles SSW of SEGUIN, TX
Time zone: UTC -5 (UTC -6 during Standard Time)
Zip code: 78155

Airport Operations

Airport use: Private use. Permission required prior to landing
Activation date: 11/1989
Control tower: no
ARTCC: HOUSTON CENTER
FSS: SAN ANGELO FLIGHT SERVICE STATION
Attendance: UNATNDD
Wind indicator: yes
Segmented circle: no

Airport Communications

WX ASOS at BAZ (12 nm N): 119.325 (830-629-7979)

Nearby radio navigation aids

VOR radial/distance  VOR name  Freq  Var
RNDr088/15.1RANDOLPH VORTAC112.3005E
SATr101/25.6SAN ANTONIO VORTAC116.8008E
SSFr049/(27.6)STINSON VOR108.4009E

Airport Services

Runway Information

Runway 14/32

Dimensions: 1925 x 75 ft. / 587 x 23 m
Surface: turf
Runway edge markings: RY 14/32 OUTLINED WITH CONC DISKS.
RUNWAY 14  RUNWAY 32
Latitude: 29-30.445000N29-30.160000N
Longitude: 097-59.909167W097-59.748333W
Elevation: 550.0 ft.550.0 ft.
Traffic pattern: leftright
Displaced threshold: no50 ft.
Obstructions: 20 ft. pline, marked, 500 ft. from runwaytrees

Airport Ownership and Management from official FAA records

Ownership: Privately-owned
Owner: ELM CREEK HOMEOWNERS ASSN INC
100 TAILWIND DRIVE
SEGUIN, TX 78155-0791
Phone 830-303-3640
Manager: JACK MERRELL
100 TAILWIND DRIVE
SEGUIN, TX 78155-0791
Phone 830-303-3640

Airport Operational Statistics

Aircraft based on the field: 20
Single engine airplanes: 20
    

Additional Remarks

FOR CD CTC SAN ANTONIO APCH AT 210-805-5516.

Instrument Procedures

There are no published instrument procedures at 0TX6.

Some nearby airports with instrument procedures:

KBAZ - New Braunfels Regional Airport (12 nm N)
KRND - Randolph Air Force Base (15 nm W)
KHYI - San Marcos Regional Airport (24 nm N)
KSAT - San Antonio International Airport (25 nm W)
KSSF - Stinson Municipal Airport (27 nm W)
 
Loc | Ops | Rwys | IFR | FBO | Links
Com | Nav | Svcs | Stats | Notes
Area around 0TX6 (Elm Creek Airpark)
 
Road maps at: MapQuest Bing Google
 
Aerial photo
WARNING: Photo may not be current or correct
Aerial photo of 0TX6 (Elm Creek Airpark)
Do you have a better or more recent aerial photo of Elm Creek Airpark that you would like to share? If so, please send us your photo.

 
Sectional chart

 
Airport distance calculator
Flying to Elm Creek Airpark? Find the distance to fly.

From to 0TX6

Sunrise and sunset
Times for 02-Aug-2021
 Local
(UTC-5)
 Zulu
(UTC)
Morning civil twilight06:2811:28
Sunrise06:5311:53
Sunset20:2301:23
Evening civil twilight20:4901:49

Current date and time
Zulu (UTC)  03-Aug-2021 02:22:30
Local (UTC-5)  02-Aug-2021 21:22:30
 
METAR
KSEQ 
6nm NE 
030158Z AUTO 00000KT 10SM FEW190 SCT230 24/23 A3001 RMK AO2 LTG DSNT S TSE05 SLP159 T02380228
KBAZ 
13nm N 
030151Z AUTO 03005KT 10SM -RA BKN100 BKN110 24/22 A2996 RMK AO2 RAB29 SLP137 P0000 T02440222
KRND 
14nm W 
030156Z AUTO 36004KT 10SM CLR 25/22 A2996 RMK AO2 SLP138 T02510216
TAF
KRND 
14nm W 
022234Z 0222/0322 VRB06KT 9999 VCSH SCT013 BKN090 BKN140 QNH2994INS BECMG 0222/0223 VRB06KT 9999 VCTS FEW020 SCT040CB BKN085 QNH2996INS TEMPO 0223/0304 VRB15G25KT 6000 -TSRA BKN025CB OVC060 BECMG 0302/0303 VRB06KT 9999 NSW BKN030 OVC050 QNH2996INS BECMG 0307/0308 35006KT 9999 VCTS FEW011CB OVC020 QNH2996INS BECMG 0311/0312 36006KT 4800 BR FEW011 SCT018 BKN026 QNH2997INS BECMG 0316/0317 02012KT 9999 NSW SCT030 SCT050 BKN075 QNH2990INS TX30/0222Z TN21/0312Z LAST NO AMDS AFT 0300 NEXT 0310
NOTAMs
Click for the latest NOTAMs
NOTAMs are issued by the DoD/FAA and will open in a separate window not controlled by AirNav.

 

 
 

Would you like to see your business listed on this page?

 If your business provides an interesting product or service to pilots, flight crews, aircraft, or users of the Elm Creek Airpark, you should consider listing it here.  To start the listing process, click on the button below
 
Add a business
 

Other Pages about Elm Creek Airpark

elmcreekap.org
 
Update a link
 
Copyright © AirNav, LLC. All rights reserved. Privacy Policy  Contact